TFM - Tactical Decision Aid (Experimental) INFO Settings
ID: Runway Winds: CIG/VIS Threshold: METAR Board: Map:

KHBG - Hattiesburg-Bobby Chain Muni

Updated at: 0220 UTC 14 Dec 2017
Latest TAF at: 2330 UTC 13 Dec 2017

TAF Board

Time0153Z14/03Z14/04Z14/05Z14/06Z14/07Z14/08Z14/09Z14/10Z14/11Z14/12Z14/13Z14/14Z14/15Z
TypeOBSPRVLPRVLPRVLPRVLPRVLPRVLPRVLPRVLPRVLPRVLPRVLPRVLPRVL
VIS10>6>6>6>6>6>6>6>6>6>6>6>6>6
CIG----------------------------
CoverCLRSKCSKCSKCSKCSKCSKCSKCSKCSKCSKCSKCSKCSKC
FltCatVFRVFRVFRVFRVFRVFRVFRVFRVFRVFRVFRVFRVFRVFR
WX----------------------------
WDir200210210210210210210210210210210210210210
WSpd63333333333333
WGst----------------------------
TAF
KHBG 132330Z 1400/1424 21003KT P6SM SKC
  FM141600 31003KT P6SM SKC


METAR Board

Time13/15Z 13/16Z 13/17Z 13/18Z 13/19Z 13/20Z 13/21Z 13/22Z 13/23Z 14/00Z 14/01Z 14/02Z
VIS10 10 10 10 10 10 10 10 10 10 10 10
CIG-- -- -- -- -- -- -- -- -- -- -- --
CoverCLRCLRCLRCLRCLRCLRCLRCLRCLRCLRCLRCLR
FltCatVFRVFRVFRVFRVFRVFRVFRVFRVFRVFRVFRVFR
WX------------------------
WDir1101700210200220220200210170170200
WSpd3 5 5 6 6 12 9 5 3 3 4 6
WGst-- -- -- -- -- -- -- -- -- -- -- --
METAR
KHBG 131453Z AUTO 11003KT 10SM CLR 04/01 A3016 RMK AO2 SLP213 T00390011 58001
KHBG 131553Z AUTO 17005KT 10SM CLR 08/M02 A3017 RMK AO2 SLP216 T00831022
KHBG 131653Z AUTO VRB05KT 10SM CLR 11/M04 A3015 RMK AO2 SLP208 T01111039
KHBG 131753Z AUTO 21006KT 10SM CLR 13/M03 A3011 RMK AO2 SLP195 T01281028 10128 21022 58017
KHBG 131853Z AUTO 20006KT 10SM CLR 14/M03 A3008 RMK AO2 SLP185 T01391028
KHBG 131953Z AUTO 22012KT 10SM CLR 14/M03 A3005 RMK AO2 SLP174 T01441028
KHBG 132053Z AUTO 22009KT 10SM CLR 14/M02 A3004 RMK AO2 SLP171 T01391017 56024
KHBG 132153Z AUTO 20005KT 10SM CLR 13/00 A3002 RMK AO2 SLP164 T01280000
KHBG 132253Z AUTO 21003KT 10SM CLR 11/01 A3000 RMK AO2 SLP160 T01060011
KHBG 132353Z AUTO 17003KT 10SM CLR 07/03 A3000 RMK AO2 SLP159 T00670033 10144 20067 56012
KHBG 140053Z AUTO 17004KT 10SM CLR 05/03 A2999 RMK AO2 SLP157 T00500028
KHBG 140153Z AUTO 20006KT 10SM CLR 09/01 A2998 RMK AO2 SLP152 T00940011

TAF/METAR Board Legend

Potential Impact
  None Marginal Slight Moderate High
Visibility (sm) >5 3≤X≤5 2≤X<3 0.75≤X<2 <0.75
Ceiling (100 ft) >30 10≤X≤30 8≤X<10 2≤X<8 <2
Wind Speed (kt) <10 10≤X<20 20≤X<30 ≥30
Wind Gust (kt) <15 15≤X<25 25≤X<35 ≥35
Weather No Wx Reported VCTS -TS,-FZRA TS,FZRA +TS,+FZRA